Time;durP1;ratioP1;P1;durP2;ratioP2;P2;SDS_P1;SDS_P2;PMS_P1;PMS_P2;Temp;Humidity;BMP_temperature;BMP_pressure;BME280_temperature;BME280_humidity;BME280_pressure;Samples;Min_cycle;Max_cycle;Signal;HPM_P1;HPM_P2
2021/08/05 00:01:59;;;;;;;4.85;2.45;;;;;;;21.47;100.00;95873.22;5014666;28;20663;-55
2021/08/05 00:04:28;;;;;;;3.83;2.70;;;;;;;20.65;100.00;95878.09;5006561;28;20466;-54
2021/08/05 00:06:56;;;;;;;4.20;2.40;;;;;;;20.57;100.00;95884.53;5009130;28;20073;-55
2021/08/05 00:09:25;;;;;;;2.33;2.10;;;;;;;20.06;100.00;95874.88;5010236;28;20435;-53
2021/08/05 00:11:54;;;;;;;4.03;2.28;;;;;;;19.89;100.00;95871.09;5009420;28;20073;-55
2021/08/05 00:14:23;;;;;;;3.70;2.38;;;;;;;20.05;100.00;95880.44;5013329;28;20073;-55
2021/08/05 00:16:51;;;;;;;2.85;2.30;;;;;;;20.12;100.00;95876.66;5009969;28;20077;-58
2021/08/05 00:19:20;;;;;;;3.13;2.10;;;;;;;20.06;100.00;95872.22;5016232;28;20487;-52
2021/08/05 00:21:48;;;;;;;5.32;2.38;;;;;;;20.32;100.00;95868.47;5010132;28;20440;-56
2021/08/05 00:24:17;;;;;;;2.83;2.17;;;;;;;20.08;100.00;95871.97;5008567;28;20073;-55
2021/08/05 00:26:45;;;;;;;3.47;2.03;;;;;;;20.09;100.00;95871.75;5011450;28;20088;-57
2021/08/05 00:29:15;;;;;;;3.05;2.30;;;;;;;20.12;100.00;95868.63;5011977;28;20064;-58
2021/08/05 00:31:44;;;;;;;3.85;2.70;;;;;;;20.22;100.00;95862.78;5008696;28;20085;-53
2021/08/05 00:34:12;;;;;;;3.67;2.35;;;;;;;20.02;100.00;95864.81;5013083;28;20061;-55
2021/08/05 00:36:41;;;;;;;4.53;2.30;;;;;;;20.40;100.00;95870.03;5011692;28;20065;-55
2021/08/05 00:39:09;;;;;;;3.08;2.20;;;;;;;20.42;100.00;95862.63;5010309;28;20092;-56
2021/08/05 00:41:38;;;;;;;2.70;2.17;;;;;;;20.67;100.00;95859.09;5008601;28;20646;-53
2021/08/05 00:44:06;;;;;;;4.25;2.47;;;;;;;20.91;100.00;95862.75;5010368;28;20108;-53
2021/08/05 00:46:36;;;;;;;3.35;2.30;;;;;;;20.27;100.00;95864.81;5009376;28;20062;-55
2021/08/05 00:49:05;;;;;;;2.33;2.10;;;;;;;21.18;100.00;95864.06;5010449;28;20066;-56
2021/08/05 00:51:33;;;;;;;4.22;2.42;;;;;;;20.77;100.00;95868.25;5011055;28;20053;-54
2021/08/05 00:54:02;;;;;;;2.97;2.20;;;;;;;21.04;100.00;95857.22;5010287;28;20060;-57
2021/08/05 00:56:30;;;;;;;3.03;2.30;;;;;;;20.96;100.00;95861.03;5010967;28;20070;-57
2021/08/05 00:58:59;;;;;;;4.45;2.38;;;;;;;20.55;100.00;95861.69;5009697;28;20204;-58
2021/08/05 01:01:32;;;;;;;3.40;2.25;;;;;;;21.19;100.00;95862.19;5014506;28;20065;-58
2021/08/05 01:04:03;;;;;;;3.58;2.10;;;;;;;21.21;100.00;95852.06;5007716;28;20376;-58
2021/08/05 01:06:38;;;;;;;3.05;2.20;;;;;;;21.32;100.00;95851.28;5009324;28;20081;-60
2021/08/05 01:09:11;;;;;;;3.05;2.35;;;;;;;21.54;100.00;95849.78;5008104;28;20460;-57
2021/08/05 01:11:44;;;;;;;4.13;2.55;;;;;;;21.48;100.00;95848.00;5012710;28;20065;-57
2021/08/05 01:14:14;;;;;;;4.05;2.70;;;;;;;21.55;100.00;95850.59;5007724;28;20068;-54
2021/08/05 01:16:45;;;;;;;4.03;2.40;;;;;;;21.19;100.00;95848.78;5009447;28;20088;-55
2021/08/05 01:19:23;;;;;;;3.95;2.28;;;;;;;21.20;100.00;95853.94;5013855;28;20452;-54
2021/08/05 01:21:59;;;;;;;2.72;2.35;;;;;;;21.01;100.00;95852.31;5008112;28;20065;-57
2021/08/05 01:24:30;;;;;;;8.15;2.15;;;;;;;20.91;100.00;95843.97;5010950;28;20058;-52
2021/08/05 01:27:03;;;;;;;3.75;2.20;;;;;;;20.81;100.00;95848.00;5010114;28;20069;-57
2021/08/05 01:29:34;;;;;;;3.08;2.53;;;;;;;21.08;100.00;95845.81;5010994;28;20452;-55
2021/08/05 01:32:05;;;;;;;3.00;2.70;;;;;;;21.36;100.00;95840.97;5016870;28;20073;-55
2021/08/05 01:34:33;;;;;;;4.18;2.78;;;;;;;21.00;100.00;95845.31;5008291;28;20520;-55
2021/08/05 01:37:02;;;;;;;4.07;3.13;;;;;;;21.18;100.00;95845.28;5011381;28;20062;-58
2021/08/05 01:39:31;;;;;;;5.90;3.20;;;;;;;21.35;100.00;95845.50;4992113;28;20069;-56
2021/08/05 01:41:59;;;;;;;3.80;2.80;;;;;;;20.74;100.00;95843.75;5013788;28;20065;-57
2021/08/05 01:44:30;;;;;;;7.03;3.50;;;;;;;20.83;100.00;95845.09;5006104;28;20626;-55
2021/08/05 01:46:59;;;;;;;4.43;3.60;;;;;;;20.96;100.00;95838.78;5017711;28;20104;-55
2021/08/05 01:49:28;;;;;;;5.40;3.67;;;;;;;20.95;100.00;95837.13;5011001;28;20077;-58
2021/08/05 01:51:57;;;;;;;4.72;3.75;;;;;;;20.60;100.00;95835.88;5007172;28;20061;-58
2021/08/05 01:54:25;;;;;;;4.07;3.45;;;;;;;20.46;100.00;95842.38;5006795;28;20061;-55
2021/08/05 01:56:54;;;;;;;6.00;3.72;;;;;;;20.76;100.00;95839.81;5010677;28;20057;-57
2021/08/05 01:59:23;;;;;;;4.68;3.65;;;;;;;20.80;100.00;95838.31;5007547;28;20507;-54
2021/08/05 02:01:53;;;;;;;5.93;4.30;;;;;;;20.89;100.00;95835.34;5011432;28;20081;-57
2021/08/05 02:04:34;;;;;;;8.23;4.10;;;;;;;20.97;100.00;95837.72;5007639;28;20058;-55
2021/08/05 02:07:04;;;;;;;;;;;;;;;20.85;100.00;95833.13;5012036;28;20080;-56
2021/08/05 02:09:34;;;;;;;6.88;4.18;;;;;;;20.66;100.00;95831.47;5007959;28;20365;-58
2021/08/05 02:12:03;;;;;;;8.70;4.63;;;;;;;20.98;100.00;95828.63;5008231;28;20092;-57
2021/08/05 02:14:33;;;;;;;10.73;5.03;;;;;;;21.42;100.00;95826.63;5010147;28;20449;-55
2021/08/05 02:17:03;;;;;;;9.32;4.85;;;;;;;21.28;100.00;95834.03;5012055;28;20128;-57
2021/08/05 02:19:32;;;;;;;7.72;4.82;;;;;;;21.69;100.00;95824.38;5012815;28;20062;-56
2021/08/05 02:22:02;;;;;;;7.68;4.88;;;;;;;21.99;100.00;95825.16;5012814;28;20069;-54
2021/08/05 02:24:31;;;;;;;6.18;4.70;;;;;;;21.37;100.00;95831.84;5008187;28;20057;-56
2021/08/05 02:27:00;;;;;;;7.15;4.53;;;;;;;21.60;100.00;95828.44;4990332;28;20264;-56
2021/08/05 02:29:29;;;;;;;5.43;4.20;;;;;;;21.25;100.00;95827.25;5003543;28;20070;-55
2021/08/05 02:31:58;;;;;;;6.70;4.30;;;;;;;21.70;100.00;95820.66;5006815;28;20088;-54
2021/08/05 02:34:30;;;;;;;6.43;4.30;;;;;;;22.04;100.00;95821.75;5006411;28;20061;-58
2021/08/05 02:36:59;;;;;;;7.30;4.00;;;;;;;21.78;100.00;95818.47;5016320;28;20516;-55
2021/08/05 02:39:28;;;;;;;5.78;4.40;;;;;;;21.23;100.00;95821.31;5008254;28;20080;-55
2021/08/05 02:41:56;;;;;;;5.22;3.92;;;;;;;21.63;100.00;95814.56;5007720;28;20076;-53
2021/08/05 02:44:26;;;;;;;5.68;3.80;;;;;;;21.38;100.00;95818.22;5002308;28;20080;-55
2021/08/05 02:46:55;;;;;;;6.45;3.72;;;;;;;21.54;100.00;95814.91;5012676;28;20037;-55
2021/08/05 02:49:24;;;;;;;8.20;4.65;;;;;;;20.28;100.00;95824.44;5012265;28;20068;-55
2021/08/05 02:51:53;;;;;;;5.50;3.97;;;;;;;20.65;100.00;95820.97;5007865;28;20061;-52
2021/08/05 02:54:22;;;;;;;5.97;4.00;;;;;;;21.56;100.00;95811.97;5017003;28;20064;-55
2021/08/05 02:56:51;;;;;;;5.97;4.47;;;;;;;20.73;100.00;95813.47;5006787;28;20539;-58
2021/08/05 02:59:19;;;;;;;6.40;5.03;;;;;;;20.61;100.00;95809.88;5008367;28;20076;-57
2021/08/05 03:01:48;;;;;;;9.88;4.88;;;;;;;21.60;100.00;95802.41;5013511;28;20077;-53
2021/08/05 03:04:17;;;;;;;8.07;4.93;;;;;;;20.95;100.00;95811.13;5006686;28;20073;-53
2021/08/05 03:06:47;;;;;;;6.43;4.72;;;;;;;21.80;100.00;95804.81;5006757;28;20078;-55
2021/08/05 03:09:17;;;;;;;7.35;4.55;;;;;;;22.13;100.00;95806.94;5008944;28;20173;-55
2021/08/05 03:11:45;;;;;;;7.88;5.15;;;;;;;21.86;100.00;95806.56;4988341;28;20129;-58
2021/08/05 03:14:14;;;;;;;5.72;4.43;;;;;;;21.86;100.00;95803.88;5012385;28;20069;-58
2021/08/05 03:16:42;;;;;;;6.55;4.85;;;;;;;21.85;100.00;95806.78;5013705;28;20073;-57
2021/08/05 03:19:11;;;;;;;8.35;4.50;;;;;;;21.70;100.00;95812.59;5004827;28;20065;-58
2021/08/05 03:21:39;;;;;;;9.98;5.15;;;;;;;21.55;100.00;95810.34;4995496;28;20064;-57
2021/08/05 03:24:08;;;;;;;6.78;5.13;;;;;;;21.45;100.00;95810.91;5009528;28;20062;-54
2021/08/05 03:26:37;;;;;;;6.22;5.00;;;;;;;21.57;100.00;95805.56;5013889;28;20066;-59
2021/08/05 03:29:06;;;;;;;9.73;4.97;;;;;;;21.67;100.00;95807.69;5014422;28;20108;-53
2021/08/05 03:31:35;;;;;;;7.45;6.05;;;;;;;21.12;100.00;95816.69;5015205;28;20524;-56
2021/08/05 03:34:03;;;;;;;7.07;5.30;;;;;;;21.44;100.00;95805.75;5012402;28;20072;-55
2021/08/05 03:36:32;;;;;;;8.95;6.03;;;;;;;21.06;100.00;95815.75;5015793;28;20069;-53
2021/08/05 03:39:00;;;;;;;9.23;6.40;;;;;;;21.05;100.00;95811.41;5011033;28;21544;-57
2021/08/05 03:41:29;;;;;;;10.15;6.60;;;;;;;21.35;100.00;95809.81;5009376;28;20093;-53
2021/08/05 03:43:58;;;;;;;16.38;6.97;;;;;;;21.12;100.00;95807.84;5012437;28;20082;-55
2021/08/05 03:46:27;;;;;;;12.88;7.10;;;;;;;20.57;100.00;95806.84;5014004;28;20064;-54
2021/08/05 03:48:55;;;;;;;9.48;6.65;;;;;;;21.03;100.00;95810.84;5011746;28;20528;-54
2021/08/05 03:51:24;;;;;;;11.23;6.65;;;;;;;20.62;100.00;95812.34;5013590;28;20070;-57
2021/08/05 03:53:52;;;;;;;11.13;6.95;;;;;;;21.27;100.00;95809.06;5013242;28;20057;-53
2021/08/05 03:56:21;;;;;;;12.23;7.45;;;;;;;20.63;100.00;95808.63;5009196;28;20080;-57
2021/08/05 03:58:49;;;;;;;9.95;7.05;;;;;;;20.94;100.00;95806.81;5013676;28;20081;-55
2021/08/05 04:04:03;;;;;;;11.80;7.72;;;;;;;20.22;100.00;95811.09;5013294;28;20062;-55
2021/08/05 04:06:42;;;;;;;10.55;7.10;;;;;;;20.92;100.00;95811.59;4967521;28;20077;-58
2021/08/05 04:12:11;;;;;;;10.30;6.63;;;;;;;20.79;100.00;95814.44;4997336;28;20481;-57
2021/08/05 04:14:40;;;;;;;11.27;6.85;;;;;;;20.53;100.00;95805.66;5013786;28;20543;-58
2021/08/05 04:17:09;;;;;;;11.15;6.82;;;;;;;20.42;100.00;95809.03;5015612;28;20077;-58
2021/08/05 04:19:38;;;;;;;10.77;6.67;;;;;;;20.39;100.00;95802.25;5011280;28;20315;-55
2021/08/05 04:22:06;;;;;;;12.88;6.97;;;;;;;21.12;100.00;95803.28;5013900;28;20088;-56
2021/08/05 04:24:34;;;;;;;13.18;7.15;;;;;;;21.41;100.00;95788.28;5007297;28;20174;-58
2021/08/05 04:27:04;;;;;;;11.10;6.75;;;;;;;21.03;100.00;95796.63;5014397;28;20068;-54
2021/08/05 04:29:32;;;;;;;11.30;7.03;;;;;;;20.89;100.00;95798.66;5010801;28;20061;-56
2021/08/05 04:32:01;;;;;;;9.20;7.10;;;;;;;20.88;100.00;95794.31;5000197;28;20056;-57
2021/08/05 04:34:30;;;;;;;14.73;7.63;;;;;;;20.33;100.00;95799.66;4984209;28;20582;-57
2021/08/05 04:36:59;;;;;;;13.83;7.17;;;;;;;20.71;100.00;95799.47;5010448;28;20084;-56
2021/08/05 04:39:27;;;;;;;10.52;7.13;;;;;;;20.59;100.00;95794.06;5009318;28;20072;-53
2021/08/05 04:41:56;;;;;;;9.75;6.60;;;;;;;20.18;100.00;95792.00;5013528;28;20069;-57
2021/08/05 04:44:25;;;;;;;9.55;7.32;;;;;;;20.35;100.00;95800.28;5014615;28;20656;-54
2021/08/05 04:46:53;;;;;;;10.23;6.63;;;;;;;19.92;100.00;95795.72;5011300;28;20061;-55
2021/08/05 04:49:22;;;;;;;10.32;6.95;;;;;;;20.51;100.00;95801.56;5009343;28;20080;-52
2021/08/05 04:51:53;;;;;;;10.07;7.03;;;;;;;19.96;100.00;95788.06;5011937;28;20061;-54
2021/08/05 04:54:22;;;;;;;9.07;6.40;;;;;;;20.01;100.00;95797.09;5011230;28;20476;-60
2021/08/05 04:56:51;;;;;;;11.52;7.00;;;;;;;20.00;100.00;95792.78;5008040;28;20532;-57
2021/08/05 04:59:21;;;;;;;9.07;7.00;;;;;;;20.02;100.00;95789.88;5012868;28;20472;-57
2021/08/05 05:01:49;;;;;;;10.40;6.35;;;;;;;19.64;100.00;95780.94;5013852;28;20084;-58
2021/08/05 05:04:18;;;;;;;9.57;6.70;;;;;;;19.79;100.00;95793.19;5008069;28;20065;-59
2021/08/05 05:06:47;;;;;;;11.68;7.47;;;;;;;20.20;100.00;95781.03;5006326;28;20073;-51
2021/08/05 05:09:16;;;;;;;9.57;7.38;;;;;;;20.23;100.00;95786.78;4994635;28;20054;-54
2021/08/05 05:11:46;;;;;;;15.60;8.05;;;;;;;20.31;100.00;95791.84;5011582;28;20069;-56
2021/08/05 05:14:15;;;;;;;14.52;7.78;;;;;;;19.95;100.00;95786.44;5007342;28;20551;-55
2021/08/05 05:16:44;;;;;;;11.63;8.02;;;;;;;20.34;100.00;95791.41;5012795;28;20078;-59
2021/08/05 05:19:12;;;;;;;10.20;7.28;;;;;;;20.15;100.00;95784.41;5012478;28;20536;-56
2021/08/05 05:21:41;;;;;;;13.10;8.13;;;;;;;20.69;100.00;95785.50;5012186;28;20061;-55
2021/08/05 05:24:09;;;;;;;10.68;7.40;;;;;;;20.74;100.00;95782.94;5011789;28;20148;-51
2021/08/05 05:26:55;;;;;;;10.38;7.25;;;;;;;20.00;100.00;95787.44;5010904;28;20070;-55
2021/08/05 05:29:23;;;;;;;9.80;7.35;;;;;;;20.02;100.00;95788.00;5010401;28;20502;-51
2021/08/05 05:31:54;;;;;;;10.23;7.10;;;;;;;20.52;100.00;95787.13;5009311;28;20089;-56
2021/08/05 05:34:23;;;;;;;11.13;7.85;;;;;;;20.91;100.00;95787.69;5007434;28;20069;-58
2021/08/05 05:36:51;;;;;;;10.70;7.72;;;;;;;21.49;100.00;95771.84;5013052;28;20077;-53
2021/08/05 05:39:19;;;;;;;9.88;7.80;;;;;;;21.21;100.00;95788.53;5015950;28;20061;-55
2021/08/05 05:41:48;;;;;;;10.70;7.45;;;;;;;20.92;100.00;95782.13;5009020;28;20108;-55
2021/08/05 05:44:18;;;;;;;11.55;7.32;;;;;;;20.78;100.00;95788.66;5005578;28;20499;-51
2021/08/05 05:46:46;;;;;;;11.07;8.10;;;;;;;20.84;100.00;95783.22;5013061;28;20074;-53
2021/08/05 05:49:15;;;;;;;11.65;6.35;;;;;;;20.10;100.00;95779.72;5007202;28;20487;-57
2021/08/05 05:51:43;;;;;;;9.48;7.00;;;;;;;21.00;100.00;95784.47;5009855;28;20066;-58
2021/08/05 05:54:12;;;;;;;8.38;6.25;;;;;;;20.52;100.00;95789.81;5016155;28;20069;-55
2021/08/05 05:56:40;;;;;;;8.55;5.63;;;;;;;19.70;100.00;95783.78;5013631;28;20545;-55
2021/08/05 05:59:08;;;;;;;7.85;5.82;;;;;;;19.79;100.00;95785.97;5004122;28;20088;-55
2021/08/05 06:01:38;;;;;;;6.75;5.28;;;;;;;19.85;100.00;95789.59;5011610;28;21565;-56
2021/08/05 06:04:07;;;;;;;8.02;4.72;;;;;;;19.13;100.00;95794.41;5007857;28;20072;-57
2021/08/05 06:06:36;;;;;;;7.95;5.22;;;;;;;19.52;100.00;95796.03;5006280;28;20070;-57
2021/08/05 06:09:04;;;;;;;6.05;4.95;;;;;;;19.84;100.00;95788.78;5012244;28;20057;-58
2021/08/05 06:11:33;;;;;;;6.10;4.75;;;;;;;19.43;100.00;95786.63;5009849;28;20123;-58
2021/08/05 06:14:01;;;;;;;5.63;4.85;;;;;;;19.46;100.00;95794.22;5011098;28;20472;-57
2021/08/05 06:16:30;;;;;;;7.32;4.95;;;;;;;19.45;100.00;95795.25;5012131;28;20077;-55
2021/08/05 06:19:00;;;;;;;6.70;4.47;;;;;;;19.53;100.00;95786.97;5008605;28;20484;-55
2021/08/05 06:21:28;;;;;;;6.18;4.32;;;;;;;19.54;100.00;95793.13;5009860;28;20073;-53
2021/08/05 06:23:57;;;;;;;6.47;4.60;;;;;;;19.61;100.00;95793.88;5008811;28;20685;-57
2021/08/05 06:26:26;;;;;;;10.02;4.88;;;;;;;19.44;100.00;95801.63;5014133;28;20081;-56
2021/08/05 06:28:54;;;;;;;7.88;5.05;;;;;;;19.37;100.00;95806.19;5010540;28;20085;-56
2021/08/05 06:31:23;;;;;;;9.27;5.07;;;;;;;19.57;100.00;95814.09;5011102;28;20076;-55
2021/08/05 06:33:52;;;;;;;5.80;4.93;;;;;;;19.57;100.00;95811.41;5005079;28;20057;-55
2021/08/05 06:36:22;;;;;;;6.72;4.95;;;;;;;19.67;100.00;95811.78;5010115;28;20092;-59
2021/08/05 06:38:50;;;;;;;7.20;5.40;;;;;;;19.61;100.00;95813.47;5013182;28;20069;-56
2021/08/05 06:41:19;;;;;;;7.05;4.80;;;;;;;19.28;100.00;95818.19;5008159;28;20092;-56
2021/08/05 06:43:48;;;;;;;15.13;5.60;;;;;;;19.62;100.00;95809.72;5017139;28;20099;-56
2021/08/05 06:46:16;;;;;;;7.05;5.40;;;;;;;19.64;100.00;95813.03;5011872;28;20291;-57
2021/08/05 06:48:45;;;;;;;7.68;5.15;;;;;;;19.38;100.00;95816.69;5005832;28;20069;-59
2021/08/05 06:51:13;;;;;;;7.10;5.13;;;;;;;20.14;100.00;95820.25;5007671;28;20061;-56
2021/08/05 06:53:43;;;;;;;10.00;5.55;;;;;;;20.20;100.00;95814.03;5011584;28;20066;-57
2021/08/05 06:56:12;;;;;;;6.68;5.32;;;;;;;20.21;100.00;95818.31;5009571;28;20053;-56
2021/08/05 06:58:40;;;;;;;7.82;5.30;;;;;;;20.08;100.00;95813.91;5013073;28;20077;-53
2021/08/05 07:01:08;;;;;;;6.50;4.93;;;;;;;20.27;100.00;95809.41;5011301;28;20065;-53
2021/08/05 07:03:37;;;;;;;8.38;5.30;;;;;;;19.81;100.00;95813.31;5007689;28;20072;-54
2021/08/05 07:06:06;;;;;;;11.18;5.40;;;;;;;19.96;100.00;95813.00;5007229;28;20069;-58
2021/08/05 07:08:35;;;;;;;5.78;4.82;;;;;;;20.17;100.00;95808.28;5006505;28;20062;-50
2021/08/05 07:11:05;;;;;;;6.13;5.07;;;;;;;20.17;100.00;95813.63;5015178;28;20077;-56
2021/08/05 07:13:33;;;;;;;7.25;4.70;;;;;;;20.48;100.00;95807.34;5004399;28;20382;-53
2021/08/05 07:16:02;;;;;;;6.97;5.13;;;;;;;20.53;100.00;95813.69;5010160;28;20080;-57
2021/08/05 07:18:31;;;;;;;7.20;4.95;;;;;;;20.52;100.00;95804.03;5006621;28;20061;-53
2021/08/05 07:21:00;;;;;;;6.30;4.70;;;;;;;20.62;100.00;95816.91;5006426;28;20076;-56
2021/08/05 07:23:28;;;;;;;6.20;4.35;;;;;;;20.24;100.00;95819.75;5006925;28;20085;-52
2021/08/05 07:25:57;;;;;;;6.90;4.47;;;;;;;19.71;100.00;95814.84;5010248;28;20104;-54
2021/08/05 07:28:28;;;;;;;7.97;4.85;;;;;;;20.49;100.00;95817.81;5005584;28;20066;-49
2021/08/05 07:30:57;;;;;;;7.35;4.47;;;;;;;19.86;100.00;95813.50;5007796;28;20074;-55
2021/08/05 07:33:26;;;;;;;7.25;4.85;;;;;;;20.50;100.00;95814.13;5006934;28;20068;-54
2021/08/05 07:35:54;;;;;;;6.43;4.47;;;;;;;20.73;100.00;95816.16;5007510;28;20061;-52
2021/08/05 07:38:23;;;;;;;6.57;4.35;;;;;;;20.73;100.00;95816.16;5011734;28;20516;-56
2021/08/05 07:40:51;;;;;;;7.30;4.45;;;;;;;20.58;100.00;95813.84;5009522;28;20085;-59
2021/08/05 07:43:20;;;;;;;7.50;4.45;;;;;;;20.95;100.00;95813.81;5005358;28;20066;-55
2021/08/05 07:45:50;;;;;;;5.75;4.63;;;;;;;20.99;100.00;95812.34;5004146;28;20741;-52
2021/08/05 07:48:18;;;;;;;6.78;4.72;;;;;;;21.75;100.00;95810.88;5014090;28;20065;-55
2021/08/05 07:50:47;;;;;;;6.22;4.78;;;;;;;21.48;100.00;95805.09;5006233;28;20073;-53
2021/08/05 07:53:15;;;;;;;7.68;5.07;;;;;;;21.56;100.00;95801.25;5009383;28;20088;-55
2021/08/05 07:55:44;;;;;;;7.75;4.68;;;;;;;21.51;100.00;95811.88;5008177;28;20092;-55
2021/08/05 07:58:12;;;;;;;7.28;4.68;;;;;;;21.26;100.00;95803.91;5010602;28;20512;-58
2021/08/05 08:00:41;;;;;;;8.55;5.00;;;;;;;21.71;100.00;95808.84;5001760;28;20066;-58
2021/08/05 08:03:11;;;;;;;7.40;5.40;;;;;;;21.64;100.00;95816.19;5005864;28;20099;-58
2021/08/05 08:05:40;;;;;;;9.32;5.43;;;;;;;21.69;100.00;95810.97;5015175;28;20084;-58
2021/08/05 08:08:09;;;;;;;6.05;5.22;;;;;;;21.78;100.00;95817.63;5011737;28;20513;-59
2021/08/05 08:10:38;;;;;;;6.75;5.38;;;;;;;21.67;100.00;95821.09;5014501;28;21431;-59
2021/08/05 08:13:23;;;;;;;8.88;5.20;;;;;;;21.96;100.00;95822.91;5009896;28;20057;-58
2021/08/05 08:15:52;;;;;;;7.18;5.47;;;;;;;21.23;100.00;95832.03;5009154;28;20081;-54
2021/08/05 08:18:22;;;;;;;9.40;6.10;;;;;;;21.76;100.00;95825.09;5015593;28;20072;-59
2021/08/05 08:20:51;;;;;;;10.55;5.72;;;;;;;21.61;100.00;95824.69;5009694;28;20074;-58
2021/08/05 08:23:19;;;;;;;7.55;5.40;;;;;;;21.97;100.00;95831.78;5007774;28;20073;-56
2021/08/05 08:25:48;;;;;;;6.53;5.68;;;;;;;22.67;100.00;95825.59;5017511;28;20089;-58
2021/08/05 08:28:16;;;;;;;9.68;5.28;;;;;;;22.11;100.00;95821.66;5009417;28;20076;-59
2021/08/05 08:30:45;;;;;;;8.27;6.32;;;;;;;22.07;100.00;95833.91;5006132;28;20088;-59
2021/08/05 08:33:13;;;;;;;7.80;6.57;;;;;;;21.69;100.00;95830.56;5013566;28;20728;-58
2021/08/05 08:35:43;;;;;;;9.57;7.05;;;;;;;22.24;100.00;95827.63;5009724;28;20065;-56
2021/08/05 08:38:11;;;;;;;9.88;6.53;;;;;;;22.39;100.00;95831.72;5006277;28;20081;-54
2021/08/05 08:40:40;;;;;;;6.97;5.80;;;;;;;22.28;100.00;95827.97;5011818;28;20089;-58
2021/08/05 08:43:08;;;;;;;7.47;6.05;;;;;;;22.60;100.00;95832.97;5013784;28;20088;-56
2021/08/05 08:45:38;;;;;;;8.20;5.80;;;;;;;21.85;100.00;95836.31;5014970;28;20080;-59
2021/08/05 08:48:07;;;;;;;7.05;6.07;;;;;;;22.09;100.00;95835.28;5008417;28;20075;-58
2021/08/05 08:50:35;;;;;;;8.68;6.00;;;;;;;22.32;100.00;95826.47;5010783;28;20524;-56
2021/08/05 08:53:07;;;;;;;9.40;6.25;;;;;;;21.65;100.00;95831.25;5012475;28;20095;-58
2021/08/05 08:55:37;;;;;;;8.07;6.22;;;;;;;21.85;100.00;95826.41;5007077;28;20458;-55
2021/08/05 08:58:07;;;;;;;10.10;6.13;;;;;;;22.54;100.00;95829.38;5012389;28;20066;-53
2021/08/05 09:00:37;;;;;;;8.07;5.47;;;;;;;22.42;100.00;95836.63;5011645;28;20065;-56
2021/08/05 09:03:06;;;;;;;;;;;;;;;22.92;100.00;95831.56;5009072;28;20065;-60
2021/08/05 09:05:35;;;;;;;7.88;5.93;;;;;;;23.44;100.00;95836.88;5007013;28;19957;-57
2021/08/05 09:08:06;;;;;;;6.97;5.60;;;;;;;23.73;100.00;95839.56;5013784;28;20085;-59
2021/08/05 09:10:35;;;;;;;7.78;5.70;;;;;;;23.49;100.00;95832.63;5006414;28;20331;-59
2021/08/05 09:13:05;;;;;;;7.60;6.22;;;;;;;23.78;100.00;95833.44;5004485;28;20073;-58
2021/08/05 09:15:38;;;;;;;7.38;5.30;;;;;;;24.84;100.00;95819.97;5009130;28;20550;-59
2021/08/05 09:18:26;;;;;;;6.13;5.40;;;;;;;23.99;100.00;95823.84;5006022;28;20058;-59
2021/08/05 09:21:12;;;;;;;7.05;5.35;;;;;;;23.51;100.00;95822.47;5007842;28;20468;-56
2021/08/05 09:23:55;;;;;;;6.95;5.78;;;;;;;23.26;100.00;95823.59;5007155;28;20077;-59
2021/08/05 09:26:26;;;;;;;6.72;5.78;;;;;;;23.03;100.00;95837.97;5004731;28;20096;-59
2021/08/05 09:29:00;;;;;;;8.30;6.07;;;;;;;23.71;100.00;95830.09;5010013;28;20085;-56
2021/08/05 09:31:29;;;;;;;9.63;6.68;;;;;;;24.38;100.00;95828.22;5005935;28;21652;-52
2021/08/05 09:34:02;;;;;;;7.60;6.72;;;;;;;23.70;100.00;95818.50;5007152;28;20065;-58
2021/08/05 09:36:30;;;;;;;10.45;7.60;;;;;;;23.89;100.00;95814.53;5003476;28;20069;-57
2021/08/05 09:39:01;;;;;;;10.00;6.90;;;;;;;23.88;100.00;95812.91;5008587;28;20081;-57
2021/08/05 09:41:29;;;;;;;;;;;;;;;24.03;100.00;95823.09;5006523;28;20112;-52
2021/08/05 09:44:04;;;;;;;8.05;6.53;;;;;;;25.57;100.00;95809.78;5009683;28;19961;-56
2021/08/05 09:46:33;;;;;;;8.18;6.55;;;;;;;25.35;96.50;95815.19;5004466;28;20084;-52
2021/08/05 09:49:02;;;;;;;8.02;6.80;;;;;;;25.38;100.00;95805.78;5002289;28;20103;-58
2021/08/05 09:51:30;;;;;;;6.88;6.18;;;;;;;24.24;100.00;95802.69;5006026;28;20065;-58
2021/08/05 09:54:03;;;;;;;8.02;5.75;;;;;;;24.91;100.00;95809.00;5005766;28;20081;-53
2021/08/05 09:56:55;;;;;;;8.32;5.90;;;;;;;25.02;100.00;95808.06;4998702;28;20089;-54
2021/08/05 09:59:23;;;;;;;6.97;5.47;;;;;;;26.77;96.89;95803.94;5005621;28;20123;-53
2021/08/05 10:02:01;;;;;;;8.25;5.78;;;;;;;25.66;100.00;95802.81;5008018;28;20069;-54
2021/08/05 10:04:31;;;;;;;6.55;5.40;;;;;;;25.17;100.00;95802.06;5004166;28;20069;-56
2021/08/05 10:07:02;;;;;;;8.40;5.43;;;;;;;25.78;95.92;95800.78;5011300;28;20073;-56
2021/08/05 10:09:33;;;;;;;6.72;5.53;;;;;;;25.15;94.15;95805.00;5003535;28;20492;-55
2021/08/05 10:12:12;;;;;;;5.75;4.68;;;;;;;25.48;94.83;95797.78;5007928;28;20070;-58
2021/08/05 10:14:42;;;;;;;5.73;4.97;;;;;;;24.66;100.00;95801.41;5009017;28;20072;-60
2021/08/05 10:17:12;;;;;;;6.03;5.13;;;;;;;25.58;98.58;95801.41;5004631;28;20433;-56
2021/08/05 10:19:41;;;;;;;6.88;5.78;;;;;;;25.36;98.96;95803.31;5008587;28;20089;-57
2021/08/05 10:22:11;;;;;;;9.10;6.00;;;;;;;25.29;92.36;95800.00;5003946;28;20080;-55
2021/08/05 10:24:43;;;;;;;6.43;5.15;;;;;;;26.25;84.79;95785.75;5010244;28;20144;-54
2021/08/05 10:27:13;;;;;;;7.22;5.68;;;;;;;26.46;74.85;95784.00;5006139;28;20308;-55
2021/08/05 10:29:42;;;;;;;;;;;;;;;26.78;69.10;95789.34;5009893;28;20065;-54
2021/08/05 10:32:13;;;;;;;5.43;4.60;;;;;;;25.92;75.88;95781.47;5003133;28;19973;-54
2021/08/05 10:34:42;;;;;;;5.40;4.38;;;;;;;25.63;81.81;95780.91;5007121;28;20088;-55
2021/08/05 10:37:12;;;;;;;4.95;4.20;;;;;;;26.38;85.70;95770.97;5005873;28;20240;-56
2021/08/05 10:39:43;;;;;;;;;;;;;;;26.40;76.35;95774.25;5007946;28;20080;-57
2021/08/05 10:42:14;;;;;;;6.55;4.78;;;;;;;25.37;89.38;95788.78;5005690;28;19979;-52
2021/08/05 10:44:43;;;;;;;5.80;4.55;;;;;;;25.98;82.64;95778.56;5004645;28;20077;-56
2021/08/05 10:47:15;;;;;;;5.03;4.40;;;;;;;25.96;82.33;95772.59;5008910;28;20081;-55
2021/08/05 10:49:46;;;;;;;5.20;4.30;;;;;;;26.17;85.27;95772.72;5006990;28;20476;-53
2021/08/05 10:52:40;;;;;;;5.35;4.30;;;;;;;26.78;76.44;95767.69;5006998;28;20066;-50
2021/08/05 10:55:28;;;;;;;5.15;4.00;;;;;;;26.87;75.80;95768.00;5007536;28;20084;-53
2021/08/05 10:58:19;;;;;;;6.32;4.38;;;;;;;27.20;75.10;95770.31;5008757;28;20116;-57
2021/08/05 11:01:04;;;;;;;6.45;4.07;;;;;;;26.95;72.89;95776.44;5003619;28;20065;-59
2021/08/05 11:03:53;;;;;;;4.63;3.88;;;;;;;26.66;67.73;95767.91;5002932;28;20073;-58
2021/08/05 11:06:34;;;;;;;5.72;3.92;;;;;;;26.87;70.93;95757.97;5005442;28;20077;-56
2021/08/05 11:09:25;;;;;;;5.10;3.67;;;;;;;25.63;81.13;95762.00;5008858;28;20080;-59
2021/08/05 11:11:55;;;;;;;5.32;3.80;;;;;;;26.17;83.16;95756.53;5004253;28;20066;-58
2021/08/05 11:14:42;;;;;;;4.82;3.72;;;;;;;25.90;80.30;95770.09;5004654;28;20084;-59
2021/08/05 11:17:10;;;;;;;6.20;4.00;;;;;;;25.72;84.75;95765.88;5003973;28;20092;-57
2021/08/05 11:19:41;;;;;;;4.90;3.55;;;;;;;24.85;97.35;95764.97;5008662;28;20092;-55
2021/08/05 11:22:50;;;;;;;6.07;3.50;;;;;;;24.84;100.00;95766.03;5004685;28;20068;-54
2021/08/05 11:25:20;;;;;;;4.32;3.47;;;;;;;24.82;95.29;95766.28;5006683;28;20072;-57
2021/08/05 11:28:21;;;;;;;5.22;3.00;;;;;;;25.90;83.99;95749.31;5010035;28;20066;-56
2021/08/05 11:30:52;;;;;;;4.40;3.45;;;;;;;25.54;85.15;95756.28;5014368;28;20066;-57
2021/08/05 11:34:00;;;;;;;5.88;3.05;;;;;;;25.65;86.98;95751.78;5006849;28;20081;-54
2021/08/05 11:36:43;;;;;;;3.75;2.85;;;;;;;25.88;78.56;95758.72;5005915;28;20085;-58
2021/08/05 11:39:19;;;;;;;3.67;3.08;;;;;;;25.38;85.52;95755.31;5010219;28;20465;-57
2021/08/05 11:42:04;;;;;;;5.05;3.20;;;;;;;25.55;80.31;95744.41;5013185;28;20180;-52
2021/08/05 11:48:37;;;;;;;3.85;2.60;;;;;;;26.15;70.93;95745.97;4987289;28;20519;-59
2021/08/05 11:51:05;;;;;;;3.22;2.88;;;;;;;26.14;72.07;95736.22;5009918;28;20107;-58
2021/08/05 11:53:34;;;;;;;5.72;2.75;;;;;;;26.43;69.62;95733.16;5007494;28;20541;-57